MSC Annamaria — H3HN — position and weather

sailwx.info

Track history (hours):
 
Tides and Currents Weather Stations Pressure Air Temp Water Temp Dewpoint Dewpoint Depression Visibility Wind Speed Wind Dir Waves Ship Positions

MSC Annamaria

Last reported at 2014-Sep-16 22:25 UTC. Time now 2014-Sep-19 09:55 UTC.
Position N 33°25' E 031°59'.

Length 188 m; draft 7.2 m.

Type: Ship (hazmat cat A). MMSI: 353852000.

Date/timePositionNaut miles runAvg speedWind from/ knotsBaromVisibWave heightAir tempDewpointWater temp
2014-Sep-16 22:25N 33°25' E 031°59'1313.3
2014-Sep-16 21:27N 33°35' E 032°09'1313.4
2014-Sep-16 20:31N 33°45' E 032°18'2813.3
2014-Sep-16 18:25N 34°06' E 032°40'1112.9
2014-Sep-16 17:33N 34°15' E 032°48'7 6.6
2014-Sep-16 16:33N 34°20' E 032°53'1110.9
2014-Sep-16 15:33N 34°28' E 033°02'1111.1
2014-Sep-16 14:33N 34°39' E 033°03'2 1.4
2014-Sep-16 13:23N 34°39' E 033°01'0 0.0
2014-Sep-16 12:11N 34°39' E 033°01'0 0.0
2014-Sep-16 11:32N 34°39' E 033°01'0 0.0
2014-Sep-16 10:33N 34°39' E 033°01'0 0.0
2014-Sep-16 09:31N 34°39' E 033°01'0 0.0
2014-Sep-16 08:32N 34°39' E 033°01'0 0.0
2014-Sep-16 07:28N 34°39' E 033°01'0 0.0
2014-Sep-16 06:33N 34°39' E 033°01'0 0.0
2014-Sep-16 05:33N 34°39' E 033°01'0 0.0
2014-Sep-16 04:33N 34°39' E 033°01'0 0.5
2014-Sep-16 03:34N 34°39' E 033°01'3 2.6
2014-Sep-16 02:33N 34°37' E 033°04'7 7.1
2014-Sep-16 01:33N 34°31' E 032°59'1312.8
2014-Sep-16 00:33N 34°34' E 032°44'20111.5
2014-Sep-15 07:10N 35°31' E 028°49'813.3
2014-Sep-15 06:33N 35°33' E 028°39'1313.1
2014-Sep-15 05:33N 35°36' E 028°24'3812.9
2014-Sep-15 02:33N 35°49' E 027°39'1414.1
2014-Sep-15 01:33N 35°56' E 027°24'4013.2
2014-Sep-14 22:31N 36°06' E 026°36'3913.3
2014-Sep-14 19:33N 36°09' E 025°48'1313.5
2014-Sep-14 18:33N 36°09' E 025°31'2612.8
2014-Sep-14 16:33N 36°15' E 025°00'1413.6
2014-Sep-14 15:33N 36°22' E 024°45'1413.7
2014-Sep-14 14:33N 36°28' E 024°30'1313.1
2014-Sep-14 13:33N 36°34' E 024°16'1313.3
2014-Sep-14 12:33N 36°46' E 024°09'1413.5
2014-Sep-14 11:33N 36°58' E 024°02'4513.4
2014-Sep-14 08:12N 37°40' E 023°42'1015.1
2014-Sep-14 07:33N 37°49' E 023°37'8 7.4
2014-Sep-14 06:27N 37°57' E 023°36'0 0.0
2014-Sep-14 05:25N 37°57' E 023°36'0 0.0
2014-Sep-14 04:22N 37°57' E 023°36'0 0.0
2014-Sep-14 03:30N 37°57' E 023°36'0 0.0
2014-Sep-14 02:31N 37°57' E 023°36'0 0.0
2014-Sep-14 01:28N 37°57' E 023°36'0 0.0
2014-Sep-13 21:25N 37°57' E 023°36'0 0.0
2014-Sep-13 20:31N 37°57' E 023°36'0 0.0
2014-Sep-13 19:29N 37°57' E 023°36'0 0.0
2014-Sep-13 18:31N 37°57' E 023°36'0 0.0
2014-Sep-13 17:32N 37°57' E 023°36'0 0.0
2014-Sep-13 16:29N 37°57' E 023°36'0 0.0
2014-Sep-13 15:33N 37°57' E 023°36'0 0.0
2014-Sep-13 14:25N 37°57' E 023°36'0 0.0
2014-Sep-13 13:29N 37°57' E 023°36'0 0.0
2014-Sep-13 12:33N 37°57' E 023°36'6 5.5
2014-Sep-13 11:33N 37°52' E 023°35'1 0.5
2014-Sep-13 10:33N 37°52' E 023°35'0 0.2
2014-Sep-13 09:33N 37°52' E 023°35'7 7.1
2014-Sep-13 08:33N 37°48' E 023°41'14 3.4
2014-Sep-13 04:31N 37°36' E 023°50'1 0.7
2014-Sep-13 03:29N 37°35' E 023°51'0 0.4
2014-Sep-13 02:18N 37°35' E 023°51'0 0.4
2014-Sep-13 01:13N 37°35' E 023°52'1 0.2
2014-Sep-12 22:32N 37°35' E 023°53'3 0.5
2014-Sep-12 16:33N 37°32' E 023°52'1 0.7
2014-Sep-12 15:10N 37°32' E 023°53'3 0.3
2014-Sep-12 05:15N 37°35' E 023°54'1 0.4
2014-Sep-12 03:12N 37°34' E 023°54'7 0.8
2014-Sep-11 18:32N 37°27' E 023°53'1110.9
2014-Sep-11 17:31N 37°33' E 024°04'1613.4
2014-Sep-11 16:18N 37°45' E 024°19'1013.3
2014-Sep-11 15:33N 37°51' E 024°29'2913.1
2014-Sep-11 13:21N 38°16' E 024°47'6011.9
2014-Sep-11 08:22N 39°06' E 025°28'1113.3
2014-Sep-11 07:33N 39°02' E 025°40'28 0.7
2014-Sep-09 15:33N 38°33' E 025°44'1612.9
2014-Sep-09 14:17N 38°24' E 025°26'912.8
2014-Sep-09 13:33N 38°19' E 025°16'4213.2
2014-Sep-09 10:20N 37°54' E 024°33'2613.6
2014-Sep-09 08:28N 37°36' E 024°11'  
Track history (hours):
 
Tides and Currents Weather Stations Pressure Air Temp Water Temp Dewpoint Dewpoint Depression Visibility Wind Speed Wind Dir Waves Ship Positions

MSC Annamaria

Last reported at 2014-Sep-16 22:25 UTC. Time now 2014-Sep-19 09:55 UTC.
Position N 33°25' E 031°59'.

Length 188 m; draft 7.2 m.

Type: Ship (hazmat cat A). MMSI: 353852000.

Date/timePositionNaut miles runAvg speedWind from/ knotsBaromVisibWave heightAir tempDewpointWater temp
2014-Sep-16 22:25N 33°25' E 031°59'1313.3
2014-Sep-16 21:27N 33°35' E 032°09'1313.4
2014-Sep-16 20:31N 33°45' E 032°18'2813.3
2014-Sep-16 18:25N 34°06' E 032°40'1112.9
2014-Sep-16 17:33N 34°15' E 032°48'7 6.6
2014-Sep-16 16:33N 34°20' E 032°53'1110.9
2014-Sep-16 15:33N 34°28' E 033°02'1111.1
2014-Sep-16 14:33N 34°39' E 033°03'2 1.4
2014-Sep-16 13:23N 34°39' E 033°01'0 0.0
2014-Sep-16 12:11N 34°39' E 033°01'0 0.0
2014-Sep-16 11:32N 34°39' E 033°01'0 0.0
2014-Sep-16 10:33N 34°39' E 033°01'0 0.0
2014-Sep-16 09:31N 34°39' E 033°01'0 0.0
2014-Sep-16 08:32N 34°39' E 033°01'0 0.0
2014-Sep-16 07:28N 34°39' E 033°01'0 0.0
2014-Sep-16 06:33N 34°39' E 033°01'0 0.0
2014-Sep-16 05:33N 34°39' E 033°01'0 0.0
2014-Sep-16 04:33N 34°39' E 033°01'0 0.5
2014-Sep-16 03:34N 34°39' E 033°01'3 2.6
2014-Sep-16 02:33N 34°37' E 033°04'7 7.1
2014-Sep-16 01:33N 34°31' E 032°59'1312.8
2014-Sep-16 00:33N 34°34' E 032°44'20111.5
2014-Sep-15 07:10N 35°31' E 028°49'813.3
2014-Sep-15 06:33N 35°33' E 028°39'1313.1
2014-Sep-15 05:33N 35°36' E 028°24'3812.9
2014-Sep-15 02:33N 35°49' E 027°39'1414.1
2014-Sep-15 01:33N 35°56' E 027°24'4013.2
2014-Sep-14 22:31N 36°06' E 026°36'3913.3
2014-Sep-14 19:33N 36°09' E 025°48'1313.5
2014-Sep-14 18:33N 36°09' E 025°31'2612.8
2014-Sep-14 16:33N 36°15' E 025°00'1413.6
2014-Sep-14 15:33N 36°22' E 024°45'1413.7
2014-Sep-14 14:33N 36°28' E 024°30'1313.1
2014-Sep-14 13:33N 36°34' E 024°16'1313.3
2014-Sep-14 12:33N 36°46' E 024°09'1413.5
2014-Sep-14 11:33N 36°58' E 024°02'4513.4
2014-Sep-14 08:12N 37°40' E 023°42'1015.1
2014-Sep-14 07:33N 37°49' E 023°37'8 7.4
2014-Sep-14 06:27N 37°57' E 023°36'0 0.0
2014-Sep-14 05:25N 37°57' E 023°36'0 0.0
2014-Sep-14 04:22N 37°57' E 023°36'0 0.0
2014-Sep-14 03:30N 37°57' E 023°36'0 0.0
2014-Sep-14 02:31N 37°57' E 023°36'0 0.0
2014-Sep-14 01:28N 37°57' E 023°36'0 0.0
2014-Sep-13 21:25N 37°57' E 023°36'0 0.0
2014-Sep-13 20:31N 37°57' E 023°36'0 0.0
2014-Sep-13 19:29N 37°57' E 023°36'0 0.0
2014-Sep-13 18:31N 37°57' E 023°36'0 0.0
2014-Sep-13 17:32N 37°57' E 023°36'0 0.0
2014-Sep-13 16:29N 37°57' E 023°36'0 0.0
2014-Sep-13 15:33N 37°57' E 023°36'0 0.0
2014-Sep-13 14:25N 37°57' E 023°36'0 0.0
2014-Sep-13 13:29N 37°57' E 023°36'0 0.0
2014-Sep-13 12:33N 37°57' E 023°36'6 5.5
2014-Sep-13 11:33N 37°52' E 023°35'1 0.5
2014-Sep-13 10:33N 37°52' E 023°35'0 0.2
2014-Sep-13 09:33N 37°52' E 023°35'7 7.1
2014-Sep-13 08:33N 37°48' E 023°41'14 3.4
2014-Sep-13 04:31N 37°36' E 023°50'1 0.7
2014-Sep-13 03:29N 37°35' E 023°51'0 0.4
2014-Sep-13 02:18N 37°35' E 023°51'0 0.4
2014-Sep-13 01:13N 37°35' E 023°52'1 0.2
2014-Sep-12 22:32N 37°35' E 023°53'3 0.5
2014-Sep-12 16:33N 37°32' E 023°52'1 0.7
2014-Sep-12 15:10N 37°32' E 023°53'3 0.3
2014-Sep-12 05:15N 37°35' E 023°54'1 0.4
2014-Sep-12 03:12N 37°34' E 023°54'7 0.8
2014-Sep-11 18:32N 37°27' E 023°53'1110.9
2014-Sep-11 17:31N 37°33' E 024°04'1613.4
2014-Sep-11 16:18N 37°45' E 024°19'1013.3
2014-Sep-11 15:33N 37°51' E 024°29'2913.1
2014-Sep-11 13:21N 38°16' E 024°47'6011.9
2014-Sep-11 08:22N 39°06' E 025°28'1113.3
2014-Sep-11 07:33N 39°02' E 025°40'28 0.7
2014-Sep-09 15:33N 38°33' E 025°44'1612.9
2014-Sep-09 14:17N 38°24' E 025°26'912.8
2014-Sep-09 13:33N 38°19' E 025°16'4213.2
2014-Sep-09 10:20N 37°54' E 024°33'2613.6
2014-Sep-09 08:28N 37°36' E 024°11'  

Dump ship's entire track history